Time;durP1;ratioP1;P1;durP2;ratioP2;P2;SDS_P1;SDS_P2;PMS_P1;PMS_P2;Temp;Humidity;BMP_temperature;BMP_pressure;BME280_temperature;BME280_humidity;BME280_pressure;Samples;Min_cycle;Max_cycle;Signal;HPM_P1;HPM_P2
2022/05/31 00:01:05;;;;;;;12.87;8.17;;;8.70;1.00;;;;;;5117609;28;20184;-68
2022/05/31 00:03:31;;;;;;;9.53;7.97;;;8.70;1.00;;;;;;5117814;28;20654;-68
2022/05/31 00:05:56;;;;;;;11.13;7.70;;;8.60;1.00;;;;;;5117845;28;20175;-67
2022/05/31 00:08:22;;;;;;;11.30;7.77;;;8.50;1.00;;;;;;5117789;28;20184;-68
2022/05/31 00:10:48;;;;;;;10.23;8.20;;;8.60;1.00;;;;;;5117402;28;20231;-68
2022/05/31 00:13:13;;;;;;;10.10;8.27;;;8.50;1.00;;;;;;5099246;28;20180;-68
2022/05/31 00:15:39;;;;;;;10.30;7.97;;;8.50;1.00;;;;;;5117037;28;20195;-68
2022/05/31 00:18:05;;;;;;;10.60;8.20;;;8.50;1.00;;;;;;5117317;28;20269;-68
2022/05/31 00:20:31;;;;;;;11.00;8.10;;;8.50;1.00;;;;;;5117836;28;20193;-67
2022/05/31 00:22:57;;;;;;;8.70;7.80;;;8.50;1.00;;;;;;5117512;28;20191;-67
2022/05/31 00:25:23;;;;;;;8.83;7.27;;;8.40;1.00;;;;;;5117052;28;20180;-67
2022/05/31 00:27:48;;;;;;;10.13;7.97;;;8.40;1.00;;;;;;5098772;28;20176;-68
2022/05/31 00:30:16;;;;;;;11.60;7.33;;;8.40;1.00;;;;;;5117171;28;20676;-68
2022/05/31 00:32:47;;;;;;;8.60;7.40;;;8.40;1.00;;;;;;5098680;28;20176;-68
2022/05/31 00:35:20;;;;;;;11.50;7.73;;;8.40;1.00;;;;;;5117280;28;20609;-68
2022/05/31 00:37:46;;;;;;;8.57;7.47;;;8.40;1.00;;;;;;5117006;28;20259;-68
2022/05/31 00:40:14;;;;;;;11.40;7.50;;;8.40;1.00;;;;;;5116832;28;20196;-68
2022/05/31 00:42:51;;;;;;;10.37;7.67;;;8.40;1.00;;;;;;5117322;28;20210;-68
2022/05/31 00:45:18;;;;;;;11.63;7.20;;;8.40;1.00;;;;;;5098370;28;20709;-68
2022/05/31 00:47:44;;;;;;;9.70;8.13;;;8.30;1.00;;;;;;5116961;28;20198;-68
2022/05/31 00:50:31;;;;;;;14.37;8.73;;;8.30;1.00;;;;;;5098504;28;20616;-68
2022/05/31 00:53:05;;;;;;;10.87;7.90;;;8.30;1.00;;;;;;5116939;28;20214;-68
2022/05/31 00:55:42;;;;;;;13.90;8.70;;;8.30;1.00;;;;;;5098347;28;20539;-68
2022/05/31 00:58:28;;;;;;;10.73;8.87;;;8.30;7.90;;;;;;5098599;28;20219;-68
2022/05/31 01:00:56;;;;;;;10.40;8.50;;;8.30;10.70;;;;;;5116401;28;20198;-68
2022/05/31 01:03:23;;;;;;;10.60;8.13;;;8.40;5.10;;;;;;5098540;28;20180;-68
2022/05/31 01:05:49;;;;;;;11.27;8.40;;;8.30;1.00;;;;;;5098429;28;20176;-68
2022/05/31 01:08:15;;;;;;;10.07;7.50;;;8.20;1.00;;;;;;5098240;28;20540;-68
2022/05/31 01:10:42;;;;;;;10.57;7.93;;;8.00;1.00;;;;;;5116561;28;20192;-68
2022/05/31 01:13:10;;;;;;;13.23;8.17;;;8.10;1.00;;;;;;5098513;28;20543;-68
2022/05/31 01:15:36;;;;;;;9.27;7.80;;;8.20;1.00;;;;;;5116790;28;20224;-68
2022/05/31 01:18:03;;;;;;;11.87;8.57;;;8.20;1.00;;;;;;5116864;28;20183;-68
2022/05/31 01:20:29;;;;;;;10.67;8.07;;;8.20;1.00;;;;;;5117084;28;20212;-68
2022/05/31 01:22:59;;;;;;;12.97;8.37;;;8.20;7.60;;;;;;5116380;28;20190;-67
2022/05/31 01:25:58;;;;;;;11.37;8.30;;;8.20;7.30;;;;;;5116579;28;20157;-67
2022/05/31 01:28:46;;;;;;;9.73;8.10;;;8.20;19.00;;;;;;5099047;28;20190;-67
2022/05/31 01:31:28;;;;;;;11.13;7.93;;;8.30;40.70;;;;;;5116147;28;20326;-67
2022/05/31 01:34:07;;;;;;;10.10;7.87;;;8.20;37.60;;;;;;5116254;28;20160;-68
2022/05/31 01:36:53;;;;;;;9.73;8.00;;;8.20;60.20;;;;;;5115894;28;20176;-67
2022/05/31 01:39:29;;;;;;;11.33;7.80;;;8.30;62.90;;;;;;5096748;28;20626;-68
2022/05/31 01:42:08;;;;;;;9.13;7.53;;;8.20;62.50;;;;;;5116526;28;20152;-67
2022/05/31 01:44:37;;;;;;;10.30;8.07;;;8.20;68.10;;;;;;5098288;28;20644;-67
2022/05/31 01:47:04;;;;;;;8.83;7.80;;;8.20;74.30;;;;;;5097908;28;20208;-68
2022/05/31 01:49:38;;;;;;;10.27;8.20;;;8.20;53.80;;;;;;5098003;28;20726;-67
2022/05/31 01:52:04;;;;;;;10.30;7.60;;;8.20;41.90;;;;;;5116270;28;20164;-67
2022/05/31 01:54:32;;;;;;;8.77;7.63;;;8.10;33.30;;;;;;5115615;28;20176;-67
2022/05/31 01:57:01;;;;;;;8.97;7.20;;;8.10;38.40;;;;;;5097300;28;20183;-68
2022/05/31 01:59:31;;;;;;;9.07;7.53;;;8.00;46.60;;;;;;5115436;28;20211;-68
2022/05/31 02:01:59;;;;;;;9.37;7.63;;;8.00;45.40;;;;;;5115185;28;20168;-68
2022/05/31 02:04:25;;;;;;;10.37;7.70;;;8.00;48.20;;;;;;5096964;28;20168;-68
2022/05/31 02:07:10;;;;;;;9.70;7.63;;;8.00;52.90;;;;;;5115514;28;20171;-68
2022/05/31 02:09:36;;;;;;;9.07;7.57;;;7.90;52.00;;;;;;5115234;28;20672;-68
2022/05/31 02:12:03;;;;;;;11.37;7.53;;;7.90;72.00;;;;;;5096952;28;20215;-68
2022/05/31 02:14:28;;;;;;;10.63;8.27;;;7.90;96.80;;;;;;5115031;28;20245;-67
2022/05/31 02:16:54;;;;;;;9.00;7.90;;;7.90;99.00;;;;;;5096517;28;20176;-68
2022/05/31 02:19:27;;;;;;;10.60;7.70;;;7.90;95.50;;;;;;5115293;28;20553;-68
2022/05/31 02:22:01;;;;;;;10.50;8.30;;;7.90;99.90;;;;;;5115250;28;20171;-68
2022/05/31 02:24:27;;;;;;;11.23;7.83;;;7.90;99.90;;;;;;5115119;28;20201;-68
2022/05/31 02:26:53;;;;;;;12.03;8.37;;;7.90;99.90;;;;;;5096547;28;20176;-68
2022/05/31 02:29:27;;;;;;;12.03;8.40;;;7.90;99.90;;;;;;5114796;28;20196;-68
2022/05/31 02:31:53;;;;;;;10.00;7.93;;;7.90;99.90;;;;;;5114613;28;20165;-68
2022/05/31 02:34:22;;;;;;;9.03;7.37;;;7.90;99.90;;;;;;5115229;28;20182;-68
2022/05/31 02:36:49;;;;;;;8.93;8.03;;;7.90;99.90;;;;;;5114670;28;20182;-68
2022/05/31 02:39:15;;;;;;;11.40;8.10;;;8.00;99.90;;;;;;5096172;28;20265;-68
2022/05/31 02:41:41;;;;;;;11.33;9.37;;;8.00;99.90;;;;;;5114671;28;20165;-68
2022/05/31 02:44:07;;;;;;;8.77;7.87;;;8.00;99.90;;;;;;5114349;28;20247;-68
2022/05/31 02:46:33;;;;;;;9.90;7.63;;;7.90;99.90;;;;;;5114473;28;20211;-68
2022/05/31 02:49:00;;;;;;;13.53;8.17;;;8.00;99.90;;;;;;5095944;28;20202;-68
2022/05/31 02:51:26;;;;;;;10.83;8.03;;;7.90;99.90;;;;;;5114484;28;20179;-68
2022/05/31 02:53:52;;;;;;;9.80;8.03;;;8.00;99.90;;;;;;5096205;28;20229;-68
2022/05/31 02:56:18;;;;;;;10.87;8.03;;;7.90;99.90;;;;;;5114384;28;20186;-68
2022/05/31 02:58:44;;;;;;;9.77;7.73;;;8.00;99.90;;;;;;5114385;28;20200;-68
2022/05/31 03:01:32;;;;;;;9.60;8.03;;;8.00;99.90;;;;;;5114102;28;20191;-67
2022/05/31 03:03:58;;;;;;;12.67;8.50;;;8.00;99.90;;;;;;5096013;28;20225;-68
2022/05/31 03:06:24;;;;;;;11.40;7.97;;;8.00;99.90;;;;;;5114515;28;20251;-68
2022/05/31 03:08:51;;;;;;;8.97;8.07;;;8.00;99.90;;;;;;5095635;28;20187;-67
2022/05/31 03:11:19;;;;;;;9.83;7.50;;;8.00;99.90;;;;;;5095832;28;20597;-68
2022/05/31 03:13:47;;;;;;;10.13;7.77;;;8.00;99.90;;;;;;5114151;28;20188;-68
2022/05/31 03:16:15;;;;;;;10.60;8.50;;;8.00;99.90;;;;;;5095500;28;20180;-68
2022/05/31 03:18:52;;;;;;;12.60;8.07;;;8.00;99.90;;;;;;5114405;28;20206;-68
2022/05/31 03:21:24;;;;;;;8.77;7.70;;;8.00;99.90;;;;;;5095964;28;20232;-68
2022/05/31 03:24:02;;;;;;;10.03;7.57;;;8.00;99.90;;;;;;5114454;28;20172;-68
2022/05/31 03:26:30;;;;;;;8.63;7.73;;;8.10;99.90;;;;;;5114413;28;20152;-68
2022/05/31 03:28:56;;;;;;;9.20;7.40;;;8.10;99.90;;;;;;5095837;28;20164;-68
2022/05/31 03:31:23;;;;;;;10.23;8.53;;;8.00;99.90;;;;;;5113940;28;20724;-68
2022/05/31 03:33:48;;;;;;;9.27;7.53;;;7.80;99.90;;;;;;5114086;28;20673;-68
2022/05/31 03:36:14;;;;;;;11.70;8.50;;;7.80;99.90;;;;;;5114041;28;20185;-68
2022/05/31 03:38:40;;;;;;;9.20;8.13;;;7.90;99.90;;;;;;5114148;28;20714;-68
2022/05/31 03:41:06;;;;;;;9.50;8.47;;;7.90;99.90;;;;;;5095605;28;20196;-68
2022/05/31 03:43:34;;;;;;;10.20;8.33;;;7.90;99.90;;;;;;5114159;28;20263;-68
2022/05/31 03:46:00;;;;;;;9.77;7.67;;;7.90;99.90;;;;;;5095405;28;20203;-68
2022/05/31 03:48:27;;;;;;;10.37;8.90;;;8.00;99.90;;;;;;5114038;28;20172;-68
2022/05/31 03:51:19;;;;;;;13.60;8.83;;;8.00;99.90;;;;;;5113765;28;20196;-68
2022/05/31 03:53:44;;;;;;;13.47;8.53;;;8.00;99.90;;;;;;5091315;28;20304;-68
2022/05/31 03:56:12;;;;;;;10.13;7.40;;;8.10;99.90;;;;;;5113616;28;20188;-69
2022/05/31 03:58:38;;;;;;;10.30;7.83;;;8.10;99.90;;;;;;5095779;28;20230;-67
2022/05/31 04:01:04;;;;;;;8.37;7.50;;;8.20;99.90;;;;;;5096072;28;20215;-68
2022/05/31 04:03:31;;;;;;;10.90;8.13;;;8.20;99.90;;;;;;5117586;28;20184;-67
2022/05/31 04:05:56;;;;;;;11.73;8.00;;;8.20;99.90;;;;;;5117432;28;20725;-67
2022/05/31 04:08:22;;;;;;;9.80;7.57;;;8.30;99.90;;;;;;5117685;28;20212;-67
2022/05/31 04:10:48;;;;;;;11.13;7.40;;;8.30;99.90;;;;;;5117237;28;20657;-67
2022/05/31 04:13:16;;;;;;;10.60;7.73;;;8.30;99.90;;;;;;5117642;28;20184;-67
2022/05/31 04:15:42;;;;;;;9.13;7.60;;;8.30;99.90;;;;;;5117027;28;20214;-68
2022/05/31 04:18:11;;;;;;;10.67;8.47;;;8.30;99.90;;;;;;5117178;28;20255;-67
2022/05/31 04:20:41;;;;;;;8.93;7.57;;;8.40;99.90;;;;;;5098695;28;20241;-67
2022/05/31 04:26:02;;;;;;;8.07;7.27;;;8.30;99.90;;;;;;5117414;28;20628;-67
2022/05/31 04:28:27;;;;;;;10.83;7.57;;;8.30;99.90;;;;;;5117026;28;20174;-67
2022/05/31 04:30:53;;;;;;;10.70;7.67;;;8.40;99.90;;;;;;5116714;28;20274;-68
2022/05/31 04:33:19;;;;;;;11.33;7.47;;;8.40;99.90;;;;;;5117592;28;20267;-67
2022/05/31 04:35:44;;;;;;;10.13;7.67;;;8.40;99.90;;;;;;5117276;28;20536;-67
2022/05/31 04:38:10;;;;;;;11.23;7.70;;;8.40;99.90;;;;;;5117245;28;20180;-67
2022/05/31 04:40:39;;;;;;;10.77;8.47;;;8.50;99.90;;;;;;5117338;28;20192;-67
2022/05/31 04:43:05;;;;;;;10.60;7.73;;;8.50;99.90;;;;;;5117123;28;20176;-68
2022/05/31 04:45:31;;;;;;;11.13;7.57;;;8.50;99.90;;;;;;5116893;28;20196;-68
2022/05/31 04:47:57;;;;;;;8.33;7.40;;;8.50;99.90;;;;;;5117062;28;20205;-67
2022/05/31 04:50:23;;;;;;;7.60;6.80;;;8.60;99.90;;;;;;5098478;28;20203;-67
2022/05/31 04:52:48;;;;;;;9.77;6.83;;;8.60;99.90;;;;;;5116892;28;20249;-67
2022/05/31 04:55:14;;;;;;;9.40;7.13;;;8.50;99.90;;;;;;5098324;28;20332;-67
2022/05/31 04:57:40;;;;;;;8.63;7.10;;;8.60;99.90;;;;;;5098433;28;20229;-67
2022/05/31 05:00:06;;;;;;;8.07;6.80;;;8.60;99.90;;;;;;5098234;28;20215;-68
2022/05/31 05:02:33;;;;;;;8.27;6.57;;;8.70;99.90;;;;;;5116504;28;20182;-67
2022/05/31 05:04:59;;;;;;;10.17;6.90;;;8.70;99.90;;;;;;5098013;28;20188;-67
2022/05/31 05:07:27;;;;;;;9.40;7.00;;;8.80;99.90;;;;;;5116409;28;20176;-68
2022/05/31 05:09:53;;;;;;;10.53;7.30;;;8.80;99.90;;;;;;5116568;28;20200;-67
2022/05/31 05:12:18;;;;;;;8.37;6.73;;;8.90;99.90;;;;;;5118663;28;20186;-68
2022/05/31 05:14:44;;;;;;;9.43;7.33;;;8.90;99.90;;;;;;5117245;28;20196;-68
2022/05/31 05:17:10;;;;;;;9.23;6.73;;;9.00;99.90;;;;;;5117016;28;20173;-67
2022/05/31 05:19:35;;;;;;;7.07;6.37;;;9.00;99.90;;;;;;5116417;28;20212;-67
2022/05/31 05:22:01;;;;;;;8.80;6.50;;;9.00;99.90;;;;;;5116489;28;20334;-67
2022/05/31 05:24:27;;;;;;;8.27;6.90;;;9.10;99.90;;;;;;5097901;28;20186;-67
2022/05/31 05:26:53;;;;;;;7.77;6.97;;;9.10;99.90;;;;;;5115942;28;20168;-67
2022/05/31 05:32:09;;;;;;;8.07;6.80;;;9.20;99.90;;;;;;5115748;28;20168;-67
2022/05/31 05:34:35;;;;;;;10.13;6.53;;;9.30;99.90;;;;;;5115540;28;20203;-67
2022/05/31 05:37:00;;;;;;;8.40;6.80;;;9.40;99.90;;;;;;5115872;28;20636;-67
2022/05/31 05:39:26;;;;;;;9.67;6.60;;;9.40;99.90;;;;;;5115228;28;20227;-68
2022/05/31 05:41:52;;;;;;;9.57;6.80;;;9.50;99.90;;;;;;5115517;28;20179;-67
2022/05/31 05:44:17;;;;;;;9.30;6.43;;;9.50;99.90;;;;;;5115429;28;20570;-67
2022/05/31 05:46:43;;;;;;;9.40;6.80;;;9.50;99.90;;;;;;5115286;28;20176;-68
2022/05/31 05:49:09;;;;;;;10.30;6.90;;;9.50;99.90;;;;;;5115294;28;20221;-67
2022/05/31 05:51:35;;;;;;;10.47;7.00;;;9.50;99.90;;;;;;5115553;28;20175;-67
2022/05/31 05:54:02;;;;;;;10.30;7.20;;;9.50;99.90;;;;;;5115214;28;20176;-67
2022/05/31 05:56:29;;;;;;;11.17;6.67;;;9.60;99.90;;;;;;5096912;28;20207;-67
2022/05/31 05:58:55;;;;;;;11.47;7.07;;;9.60;99.90;;;;;;5115367;28;20287;-67
2022/05/31 06:01:35;;;;;;;8.83;6.40;;;9.60;99.90;;;;;;5114795;28;20220;-67
2022/05/31 06:04:13;;;;;;;10.87;6.30;;;9.60;99.90;;;;;;5115333;28;20167;-67
2022/05/31 06:06:41;;;;;;;9.40;5.97;;;9.50;69.50;;;;;;5115271;28;20176;-68
2022/05/31 06:09:12;;;;;;;6.27;5.70;;;9.50;93.60;;;;;;5114800;28;20634;-68
2022/05/31 06:12:00;;;;;;;7.53;6.10;;;9.60;99.90;;;;;;5114939;28;20167;-67
2022/05/31 06:14:35;;;;;;;10.13;6.03;;;9.70;99.90;;;;;;5096411;28;20196;-68
2022/05/31 06:17:06;;;;;;;8.67;6.47;;;9.80;99.90;;;;;;5114880;28;20581;-68
2022/05/31 06:19:34;;;;;;;8.43;6.60;;;9.90;99.90;;;;;;5114709;28;20300;-68
2022/05/31 06:22:02;;;;;;;7.03;6.33;;;10.00;99.90;;;;;;5114681;28;20168;-67
2022/05/31 06:24:31;;;;;;;8.07;6.47;;;10.00;99.90;;;;;;5114083;28;20699;-67
2022/05/31 06:26:56;;;;;;;7.47;6.40;;;10.10;99.90;;;;;;5114549;28;20182;-67
2022/05/31 06:29:22;;;;;;;10.00;6.50;;;10.10;99.90;;;;;;5096023;28;20287;-68
2022/05/31 06:31:48;;;;;;;9.50;5.90;;;10.00;81.80;;;;;;5095851;28;20641;-68
2022/05/31 06:34:15;;;;;;;7.43;5.97;;;10.00;82.90;;;;;;5114414;28;20172;-67
2022/05/31 06:36:41;;;;;;;7.87;6.70;;;10.00;82.00;;;;;;5096052;28;20184;-68
2022/05/31 06:39:08;;;;;;;8.20;5.90;;;10.00;59.70;;;;;;5114369;28;20253;-67
2022/05/31 06:41:35;;;;;;;7.23;5.53;;;10.00;76.90;;;;;;5114315;28;20179;-67
2022/05/31 06:44:01;;;;;;;7.37;6.03;;;10.10;85.30;;;;;;5114146;28;20202;-68
2022/05/31 06:46:27;;;;;;;8.37;6.07;;;10.10;62.70;;;;;;5095645;28;20177;-68
2022/05/31 06:48:53;;;;;;;9.60;6.23;;;10.10;34.80;;;;;;5114101;28;20177;-67
2022/05/31 06:56:55;;;;;;;7.43;6.50;;;10.00;29.70;;;;;;5114760;28;20198;-68
2022/05/31 06:59:21;;;;;;;7.23;6.53;;;10.10;90.20;;;;;;5114152;28;20208;-68
2022/05/31 07:01:48;;;;;;;10.57;7.40;;;10.10;79.80;;;;;;5113919;28;20165;-68
2022/05/31 07:04:14;;;;;;;11.17;7.40;;;10.10;81.50;;;;;;5095751;28;20176;-68
2022/05/31 07:06:40;;;;;;;10.57;7.80;;;10.10;99.90;;;;;;5095674;28;20191;-68
2022/05/31 07:09:06;;;;;;;9.83;7.67;;;10.10;99.90;;;;;;5095569;28;20188;-68
2022/05/31 07:11:32;;;;;;;10.87;7.43;;;10.00;99.90;;;;;;5114477;28;20212;-68
2022/05/31 07:14:00;;;;;;;10.03;7.60;;;9.90;99.90;;;;;;5113815;28;20194;-68
2022/05/31 07:16:26;;;;;;;11.67;8.03;;;9.80;99.90;;;;;;5113684;28;20194;-68
2022/05/31 07:18:52;;;;;;;13.00;8.43;;;9.80;99.90;;;;;;5113725;28;20235;-68
2022/05/31 07:21:18;;;;;;;11.70;7.93;;;9.80;99.90;;;;;;5113803;28;20249;-68
2022/05/31 07:23:43;;;;;;;9.70;7.40;;;9.80;99.90;;;;;;5114159;28;20172;-68
2022/05/31 07:26:12;;;;;;;9.97;7.60;;;9.80;99.90;;;;;;5114147;28;20518;-68
2022/05/31 07:28:37;;;;;;;10.30;7.83;;;9.90;99.90;;;;;;5095727;28;20547;-68
2022/05/31 07:31:03;;;;;;;8.20;6.87;;;9.90;99.90;;;;;;5113523;28;20196;-68
2022/05/31 07:33:29;;;;;;;9.30;7.13;;;9.90;99.90;;;;;;5095427;28;20187;-69
2022/05/31 07:35:55;;;;;;;9.90;7.20;;;10.00;99.90;;;;;;5096420;28;20184;-68
2022/05/31 07:38:21;;;;;;;14.00;8.37;;;10.00;99.90;;;;;;5099395;28;20212;-68
2022/05/31 07:40:47;;;;;;;11.40;8.00;;;10.00;99.90;;;;;;5118175;28;20200;-68
2022/05/31 07:43:14;;;;;;;9.40;6.80;;;10.00;99.90;;;;;;5099327;28;20176;-68
2022/05/31 07:45:40;;;;;;;10.80;7.23;;;10.10;99.90;;;;;;5099352;28;20271;-68
2022/05/31 07:48:07;;;;;;;11.03;7.13;;;10.10;99.90;;;;;;5117307;28;20249;-69
2022/05/31 07:50:34;;;;;;;9.60;6.90;;;10.20;99.90;;;;;;5099766;28;20268;-68
2022/05/31 07:53:01;;;;;;;9.63;7.40;;;10.20;99.90;;;;;;5117506;28;20222;-68
2022/05/31 07:55:28;;;;;;;11.20;6.60;;;10.20;99.90;;;;;;5099490;28;20180;-68
2022/05/31 08:00:40;;;;;;;7.27;6.57;;;10.20;99.90;;;;;;5118257;28;20745;-68
2022/05/31 08:03:06;;;;;;;7.30;5.67;;;10.30;99.90;;;;;;5099000;28;20176;-68
2022/05/31 08:05:35;;;;;;;11.83;7.07;;;10.30;99.90;;;;;;5117539;28;20173;-68
2022/05/31 08:08:01;;;;;;;13.03;7.57;;;10.30;99.90;;;;;;5117722;28;20176;-68
2022/05/31 08:10:29;;;;;;;8.83;7.23;;;10.30;99.90;;;;;;5117274;28;20567;-68
2022/05/31 08:12:54;;;;;;;8.43;6.53;;;10.20;99.90;;;;;;5117236;28;20176;-68
2022/05/31 08:15:20;;;;;;;13.13;7.17;;;10.30;99.90;;;;;;5116971;28;20556;-68
2022/05/31 08:17:46;;;;;;;11.53;6.87;;;10.30;99.90;;;;;;5116850;28;20168;-68
2022/05/31 08:20:13;;;;;;;9.33;6.83;;;10.30;99.90;;;;;;5117371;28;20200;-68
2022/05/31 08:22:39;;;;;;;7.97;6.97;;;10.30;99.90;;;;;;5098793;28;20309;-68
2022/05/31 08:25:06;;;;;;;10.53;6.93;;;10.20;99.90;;;;;;5098638;28;20176;-68
2022/05/31 08:27:34;;;;;;;8.23;6.67;;;10.30;99.90;;;;;;5117452;28;20180;-68
2022/05/31 08:30:03;;;;;;;9.33;6.57;;;10.30;99.90;;;;;;5116711;28;20675;-68
2022/05/31 08:32:30;;;;;;;11.27;7.03;;;10.30;99.90;;;;;;5116636;28;20539;-68
2022/05/31 08:34:55;;;;;;;11.10;7.13;;;10.40;99.90;;;;;;5116783;28;20238;-68
2022/05/31 08:37:21;;;;;;;9.03;7.17;;;10.40;99.90;;;;;;5098556;28;20204;-68
2022/05/31 08:39:47;;;;;;;8.00;5.97;;;10.50;99.90;;;;;;5098313;28;20219;-68
2022/05/31 08:42:22;;;;;;;9.87;7.40;;;10.60;99.90;;;;;;5116608;28;20165;-68
2022/05/31 08:45:11;;;;;;;11.63;7.47;;;10.70;99.90;;;;;;5098983;28;20176;-67
2022/05/31 08:47:47;;;;;;;9.80;6.67;;;10.70;99.90;;;;;;5119029;28;20152;-67
2022/05/31 08:53:12;;;;;;;9.20;7.33;;;10.80;99.90;;;;;;5116306;28;20172;-68
2022/05/31 08:59:11;;;;;;;11.57;7.30;;;11.10;99.90;;;;;;5116595;28;20194;-68
2022/05/31 09:01:59;;;;;;;9.67;6.90;;;11.30;99.90;;;;;;5116121;28;20245;-69
2022/05/31 09:04:33;;;;;;;10.43;7.40;;;11.50;99.90;;;;;;5116276;28;20167;-69
2022/05/31 09:07:07;;;;;;;12.23;8.23;;;11.80;99.90;;;;;;5116520;28;20160;-69
2022/05/31 09:09:45;;;;;;;11.77;8.57;;;12.00;99.90;;;;;;5116038;28;20620;-68
2022/05/31 09:12:21;;;;;;;11.73;7.40;;;12.10;99.90;;;;;;5098102;28;20192;-69
2022/05/31 09:15:32;;;;;;;8.57;6.90;;;12.30;99.90;;;;;;5115798;28;20244;-69
2022/05/31 09:18:11;;;;;;;13.10;8.13;;;12.40;99.90;;;;;;5115690;28;20644;-68
2022/05/31 09:20:46;;;;;;;10.75;8.10;;;12.50;99.90;;;;;;5097312;28;20549;-68
2022/05/31 09:23:19;;;;;;;10.37;7.87;;;12.60;99.90;;;;;;5098563;28;20163;-70
2022/05/31 09:25:46;;;;;;;10.73;6.75;;;12.70;99.90;;;;;;5097409;28;20543;-67
2022/05/31 09:28:26;;;;;;;11.27;7.45;;;12.80;99.90;;;;;;5116227;28;20180;-67
2022/05/31 09:30:53;;;;;;;9.38;6.63;;;12.80;92.90;;;;;;5097540;28;20408;-69
2022/05/31 09:33:35;;;;;;;10.07;6.90;;;12.70;86.10;;;;;;5098871;28;20296;-68
2022/05/31 09:36:24;;;;;;;10.40;7.07;;;12.60;55.00;;;;;;5116871;28;20149;-70
2022/05/31 09:39:21;;;;;;;10.30;6.80;;;12.40;72.10;;;;;;5097787;28;20214;-67
2022/05/31 09:42:09;;;;;;;13.03;7.47;;;12.20;99.10;;;;;;5116475;28;20597;-68
2022/05/31 09:44:44;;;;;;;10.13;7.87;;;12.00;68.50;;;;;;5117259;28;20184;-68
2022/05/31 09:47:20;;;;;;;11.63;7.57;;;11.70;99.90;;;;;;5116852;28;20644;-69
2022/05/31 09:49:47;;;;;;;10.90;7.77;;;11.50;99.90;;;;;;5096942;28;20210;-69
2022/05/31 09:52:31;;;;;;;12.77;9.07;;;11.40;99.90;;;;;;5096956;28;20179;-69
2022/05/31 09:57:57;;;;;;;13.33;9.93;;;11.30;99.90;;;;;;5115138;28;20199;-69
2022/05/31 10:00:23;;;;;;;15.07;10.23;;;11.10;99.90;;;;;;5096107;28;20627;-69
2022/05/31 10:03:10;;;;;;;18.00;10.77;;;11.10;99.90;;;;;;5096536;28;20306;-68
2022/05/31 10:05:37;;;;;;;13.63;9.90;;;11.00;99.90;;;;;;5115034;28;20164;-69
2022/05/31 10:08:08;;;;;;;16.53;11.57;;;11.00;99.90;;;;;;5115422;28;20253;-68
2022/05/31 10:10:36;;;;;;;17.87;11.30;;;11.10;99.90;;;;;;5096730;28;20197;-68
2022/05/31 10:13:08;;;;;;;15.90;11.10;;;11.10;99.90;;;;;;5115481;28;20181;-68
2022/05/31 10:15:39;;;;;;;16.63;10.73;;;11.10;99.90;;;;;;5096678;28;20245;-68
2022/05/31 10:18:08;;;;;;;13.73;10.33;;;11.10;99.90;;;;;;5114863;28;20155;-68
2022/05/31 10:20:34;;;;;;;12.57;9.33;;;11.30;99.90;;;;;;5114981;28;20267;-68
2022/05/31 10:23:11;;;;;;;15.23;9.37;;;11.40;99.90;;;;;;5114716;28;20178;-68
2022/05/31 10:25:52;;;;;;;16.43;9.23;;;11.60;99.90;;;;;;5114805;28;20152;-68
2022/05/31 10:28:49;;;;;;;13.17;10.03;;;11.80;99.90;;;;;;5114799;28;20157;-68
2022/05/31 10:31:24;;;;;;;12.73;10.27;;;11.90;99.90;;;;;;5114683;28;20188;-68
2022/05/31 10:33:55;;;;;;;13.47;10.37;;;12.10;99.90;;;;;;5096495;28;20164;-68
2022/05/31 10:36:22;;;;;;;17.00;11.63;;;12.20;99.90;;;;;;5115153;28;20149;-68
2022/05/31 10:38:50;;;;;;;18.38;11.25;;;12.20;99.90;;;;;;5115039;28;20567;-68
2022/05/31 10:41:21;;;;;;;15.30;10.37;;;12.30;99.90;;;;;;5116496;28;20180;-68
2022/05/31 10:44:06;;;;;;;18.40;10.80;;;12.30;99.90;;;;;;5097543;28;20200;-68
2022/05/31 10:46:35;;;;;;;19.35;11.13;;;12.30;99.90;;;;;;5100159;28;20180;-68
2022/05/31 10:49:13;;;;;;;14.90;10.43;;;12.30;99.90;;;;;;5097268;28;20594;-68
2022/05/31 10:51:45;;;;;;;15.57;11.23;;;12.30;99.90;;;;;;5115359;28;20192;-68
2022/05/31 10:54:29;;;;;;;14.77;10.90;;;12.30;99.90;;;;;;5114490;28;20167;-68
2022/05/31 10:57:16;;;;;;;13.52;10.43;;;12.40;99.90;;;;;;5096285;28;20168;-68
2022/05/31 10:59:59;;;;;;;12.48;10.52;;;12.40;99.90;;;;;;5114631;28;20597;-68
2022/05/31 11:02:37;;;;;;;13.83;9.97;;;12.50;99.90;;;;;;5112837;28;20192;-68
2022/05/31 11:05:15;;;;;;;12.53;9.40;;;12.60;99.90;;;;;;5095959;28;20314;-68
2022/05/31 11:14:16;;;;;;;10.67;8.37;;;13.00;99.90;;;;;;5114715;28;20191;-68
2022/05/31 11:17:02;;;;;;;13.90;8.80;;;13.00;99.90;;;;;;5095995;28;20176;-69
2022/05/31 11:19:49;;;;;;;13.68;8.27;;;12.90;99.90;;;;;;5114109;28;20227;-68
2022/05/31 11:22:17;;;;;;;13.15;8.70;;;12.90;99.90;;;;;;5114567;28;20286;-68
2022/05/31 11:24:59;;;;;;;8.35;7.20;;;12.90;99.90;;;;;;5114134;28;20164;-68
2022/05/31 11:28:15;;;;;;;11.45;8.48;;;13.00;99.90;;;;;;5114725;28;20153;-68
2022/05/31 11:31:19;;;;;;;9.65;7.43;;;13.00;99.90;;;;;;5012053;28;20273;-68
2022/05/31 11:34:15;;;;;;;8.85;7.35;;;13.10;99.90;;;;;;5113930;28;20233;-68
2022/05/31 11:37:05;;;;;;;9.02;7.20;;;13.20;99.90;;;;;;5114598;28;20240;-68
2022/05/31 11:39:43;;;;;;;7.82;6.95;;;13.40;99.90;;;;;;5114236;28;20214;-68
2022/05/31 11:42:29;;;;;;;13.25;7.10;;;13.50;99.90;;;;;;5095863;28;20268;-68
2022/05/31 11:45:08;;;;;;;8.52;7.00;;;13.60;99.90;;;;;;5114723;28;20680;-69
2022/05/31 11:47:51;;;;;;;10.85;6.97;;;13.80;99.90;;;;;;5095829;28;20164;-69
2022/05/31 11:50:43;;;;;;;7.97;5.95;;;14.00;99.90;;;;;;5095914;28;20204;-68
2022/05/31 11:53:23;;;;;;;8.93;6.32;;;14.50;74.60;;;;;;5115230;28;20509;-69
2022/05/31 11:56:02;;;;;;;10.25;6.60;;;15.20;89.20;;;;;;5095755;28;20173;-69
2022/05/31 11:58:30;;;;;;;9.45;6.82;;;15.30;99.90;;;;;;5095929;28;20621;-69
2022/05/31 12:01:29;;;;;;;9.40;6.80;;;15.60;91.80;;;;;;5114058;28;20628;-69
2022/05/31 12:04:05;;;;;;;10.45;6.57;;;16.10;90.20;;;;;;5113968;28;20169;-69
2022/05/31 12:06:40;;;;;;;9.75;6.32;;;16.60;54.90;;;;;;5095741;28;20660;-69
2022/05/31 12:09:19;;;;;;;10.75;5.90;;;16.90;99.90;;;;;;5113867;28;20176;-69
2022/05/31 12:12:02;;;;;;;6.75;5.82;;;17.30;99.90;;;;;;5095635;28;20619;-70
2022/05/31 12:14:30;;;;;;;6.65;5.45;;;17.80;99.90;;;;;;5113587;28;20199;-69
2022/05/31 12:16:57;;;;;;;6.93;5.32;;;17.90;99.90;;;;;;5113505;28;20176;-70
2022/05/31 12:19:36;;;;;;;7.95;5.10;;;18.10;99.90;;;;;;5095337;28;20600;-70
2022/05/31 12:22:09;;;;;;;6.63;4.82;;;17.80;99.90;;;;;;5114743;28;20538;-70
2022/05/31 12:24:40;;;;;;;6.68;4.32;;;17.30;99.90;;;;;;5117417;28;20168;-70
2022/05/31 12:27:20;;;;;;;6.93;4.55;;;16.80;99.90;;;;;;5098822;28;20204;-69
2022/05/31 12:29:52;;;;;;;7.32;4.47;;;16.50;99.90;;;;;;5116905;28;20560;-70
2022/05/31 12:32:47;;;;;;;6.05;4.32;;;16.30;99.90;;;;;;5098578;28;20176;-70
2022/05/31 12:35:31;;;;;;;6.05;4.43;;;16.20;99.90;;;;;;5112108;28;20204;-70
2022/05/31 12:38:02;;;;;;;5.80;4.15;;;16.40;99.90;;;;;;5116846;28;20176;-70
2022/05/31 12:40:47;;;;;;;6.15;4.03;;;16.60;99.90;;;;;;5116664;28;20200;-70
2022/05/31 12:43:34;;;;;;;6.53;4.20;;;16.80;93.50;;;;;;5117100;28;20200;-70
2022/05/31 12:46:34;;;;;;;4.25;3.85;;;17.30;99.90;;;;;;5098542;28;20663;-70
2022/05/31 12:49:07;;;;;;;5.43;3.38;;;17.90;99.90;;;;;;5116681;28;20248;-70
2022/05/31 12:51:32;;;;;;;4.85;3.80;;;18.20;95.60;;;;;;5099274;28;20525;-70
2022/05/31 12:54:11;;;;;;;9.30;4.07;;;18.00;94.60;;;;;;5117736;28;20178;-70
2022/05/31 12:56:40;;;;;;;3.92;3.28;;;17.80;73.80;;;;;;5117518;28;20656;-70
2022/05/31 12:59:07;;;;;;;5.13;3.35;;;18.00;69.30;;;;;;5116472;28;20731;-70
2022/05/31 13:01:43;;;;;;;6.20;3.33;;;18.50;81.50;;;;;;5116914;28;20173;-72
2022/05/31 13:04:25;;;;;;;5.68;3.20;;;19.20;91.10;;;;;;5116502;28;20175;-70
2022/05/31 13:07:07;;;;;;;5.82;3.67;;;19.90;92.00;;;;;;5116466;28;20205;-70
2022/05/31 13:09:40;;;;;;;3.63;2.85;;;20.10;94.60;;;;;;5097935;28;20212;-71
2022/05/31 13:20:46;;;;;;;3.42;2.65;;;22.00;77.80;;;;;;5116708;28;20215;-70
2022/05/31 13:23:37;;;;;;;3.92;3.00;;;22.60;71.20;;;;;;5116595;28;20206;-70
2022/05/31 13:26:13;;;;;;;4.25;2.88;;;22.80;83.10;;;;;;5116469;28;20180;-69
2022/05/31 13:28:56;;;;;;;4.78;3.10;;;22.80;91.40;;;;;;5116214;28;20164;-69
2022/05/31 13:31:24;;;;;;;6.22;2.97;;;22.80;90.10;;;;;;5097549;28;20216;-70
2022/05/31 13:34:04;;;;;;;4.47;2.92;;;22.80;91.40;;;;;;5096097;28;20183;-70
2022/05/31 13:36:32;;;;;;;3.88;3.08;;;23.10;93.20;;;;;;5116226;28;20244;-70
2022/05/31 13:39:08;;;;;;;5.50;3.15;;;23.10;91.50;;;;;;5115828;28;20208;-69
2022/05/31 13:42:02;;;;;;;3.15;2.80;;;23.20;92.10;;;;;;5116339;28;20245;-69
2022/05/31 13:44:39;;;;;;;2.90;2.70;;;23.40;96.60;;;;;;5115609;28;20191;-70
2022/05/31 13:47:08;;;;;;;4.50;2.83;;;23.70;90.90;;;;;;5117152;28;20172;-69
2022/05/31 13:49:43;;;;;;;5.10;2.90;;;23.60;93.40;;;;;;5097749;28;20546;-69